createdAt,value
2018-05-26T00:01:03.480Z,99994.98
2018-05-26T00:03:31.111Z,99995.39
2018-05-26T00:05:58.708Z,99990.20
2018-05-26T00:08:26.305Z,99994.09
2018-05-26T00:10:53.949Z,99997.61
2018-05-26T00:13:21.566Z,99996.02
2018-05-26T00:15:49.160Z,99996.90
2018-05-26T00:18:16.787Z,99998.55
2018-05-26T00:20:44.392Z,99998.47
2018-05-26T00:23:12.004Z,100002.59
2018-05-26T00:25:39.660Z,100001.58
2018-05-26T00:28:07.265Z,100002.66
2018-05-26T00:30:34.921Z,100006.23
2018-05-26T00:33:02.562Z,100011.20
2018-05-26T00:35:30.165Z,100011.16
2018-05-26T00:37:57.767Z,100012.88
2018-05-26T00:40:25.421Z,100009.69
2018-05-26T00:42:53.023Z,100010.37
2018-05-26T00:45:20.612Z,100003.45
2018-05-26T00:47:48.244Z,100006.61
2018-05-26T00:50:15.888Z,100013.59
2018-05-26T00:52:43.478Z,100020.99
2018-05-26T00:55:11.256Z,100020.99
2018-05-26T00:57:38.843Z,100027.30
2018-05-26T01:00:06.453Z,100033.55
2018-05-26T01:02:34.091Z,100031.34
2018-05-26T01:05:01.704Z,100028.33
2018-05-26T01:07:29.297Z,100034.14
2018-05-26T01:09:56.935Z,100038.20
2018-05-26T01:12:24.547Z,100046.66
2018-05-26T01:14:52.151Z,100043.95
2018-05-26T01:17:19.780Z,100049.11
2018-05-26T01:19:47.372Z,100046.31
2018-05-26T01:22:14.965Z,100049.05
2018-05-26T01:24:42.614Z,100046.56
2018-05-26T01:27:10.214Z,100050.87
2018-05-26T01:29:37.800Z,100055.14
2018-05-26T01:32:05.459Z,100056.88
2018-05-26T01:34:33.047Z,100052.78
2018-05-26T01:37:00.642Z,100056.92
2018-05-26T01:39:28.267Z,100062.85
2018-05-26T01:41:55.867Z,100065.58
2018-05-26T01:44:23.480Z,100067.78
2018-05-26T01:46:51.111Z,100069.52
2018-05-26T01:49:18.700Z,100075.97
2018-05-26T01:51:46.297Z,100073.82
2018-05-26T01:54:13.937Z,100075.69
2018-05-26T01:56:41.581Z,100074.45
2018-05-26T01:59:09.175Z,100077.22
2018-05-26T02:01:36.817Z,100077.69
2018-05-26T02:04:04.417Z,100081.43
2018-05-26T02:06:32.013Z,100085.02
2018-05-26T02:08:59.648Z,100089.05
2018-05-26T02:11:27.246Z,100089.21
2018-05-26T02:13:54.832Z,100094.20
2018-05-26T02:16:22.474Z,100091.61
2018-05-26T02:18:50.063Z,100092.92
2018-05-26T02:21:17.648Z,100099.09
2018-05-26T02:23:45.274Z,100099.53
2018-05-26T02:26:12.869Z,100098.41
2018-05-26T02:28:40.456Z,100098.49
2018-05-26T02:31:08.093Z,100097.09
2018-05-26T02:33:35.698Z,100101.87
2018-05-26T02:36:03.339Z,100105.77
2018-05-26T02:38:30.980Z,100101.27
2018-05-26T02:40:58.570Z,100106.14
2018-05-26T02:43:26.159Z,100108.11
2018-05-26T02:45:53.800Z,100104.87
2018-05-26T02:48:21.410Z,100103.24
2018-05-26T02:50:49.024Z,100101.84
2018-05-26T02:53:16.666Z,100103.77
2018-05-26T02:55:44.293Z,100101.02
2018-05-26T02:58:11.894Z,100103.67
2018-05-26T03:00:39.552Z,100111.00
2018-05-26T03:03:07.144Z,100108.35
2018-05-26T03:05:40.217Z,100112.28
2018-05-26T03:08:13.202Z,100105.61
2018-05-26T03:10:46.522Z,100106.14
2018-05-26T03:13:19.655Z,100111.87
2018-05-26T03:15:48.805Z,100108.92
2018-05-26T03:18:16.413Z,100112.03
2018-05-26T03:20:44.005Z,100103.44
2018-05-26T03:23:11.627Z,100101.23
2018-05-26T03:25:39.251Z,100094.46
2018-05-26T03:28:06.855Z,100091.13
2018-05-26T03:30:34.499Z,100098.90
2018-05-26T03:33:02.110Z,100100.60
2018-05-26T03:35:29.697Z,100103.14
2018-05-26T03:37:57.313Z,100103.62
2018-05-26T03:40:24.920Z,100110.17
2018-05-26T03:42:52.512Z,100107.84
2018-05-26T03:45:20.136Z,100111.31
2018-05-26T03:47:47.780Z,100117.27
2018-05-26T03:50:15.370Z,100107.84
2018-05-26T03:52:42.985Z,100105.73
2018-05-26T03:58:23.922Z,100102.71
2018-05-26T04:00:51.512Z,100105.70
2018-05-26T04:03:19.120Z,100107.36
2018-05-26T04:05:46.753Z,100107.02
2018-05-26T04:08:14.356Z,100093.55
2018-05-26T04:10:41.952Z,100096.69
2018-05-26T04:13:09.586Z,100097.98
2018-05-26T04:15:37.168Z,100098.20
2018-05-26T04:18:04.800Z,100095.48
2018-05-26T04:20:32.425Z,100092.69
2018-05-26T04:23:00.002Z,100088.86
2018-05-26T04:25:27.578Z,100090.50
2018-05-26T04:27:55.202Z,100094.17
2018-05-26T04:30:22.778Z,100090.05
2018-05-26T04:32:50.379Z,100091.15
2018-05-26T04:35:18.024Z,100099.22
2018-05-26T04:37:45.636Z,100103.24
2018-05-26T04:40:13.230Z,100101.09
2018-05-26T04:42:40.872Z,100094.86
2018-05-26T04:45:08.469Z,100096.08
2018-05-26T04:47:36.072Z,100089.34
2018-05-26T04:50:03.708Z,100099.02
2018-05-26T04:52:31.305Z,100096.72
2018-05-26T04:54:58.900Z,100091.31
2018-05-26T04:57:26.514Z,100090.28
2018-05-26T04:59:54.111Z,100094.70
2018-05-26T05:02:21.720Z,100104.87
2018-05-26T05:04:49.337Z,100105.95
2018-05-26T05:07:16.927Z,100102.42
2018-05-26T05:09:44.511Z,100104.86
2018-05-26T05:12:12.142Z,100110.81
2018-05-26T05:14:39.737Z,100113.71
2018-05-26T05:17:07.332Z,100109.45
2018-05-26T05:19:34.989Z,100115.81
2018-05-26T05:22:02.589Z,100120.30
2018-05-26T05:24:30.179Z,100117.02
2018-05-26T05:26:57.808Z,100122.45
2018-05-26T05:29:25.397Z,100131.70
2018-05-26T05:31:52.989Z,100141.03
2018-05-26T05:34:20.695Z,100134.34
2018-05-26T05:36:48.297Z,100137.28
2018-05-26T05:39:15.897Z,100133.20
2018-05-26T05:41:43.533Z,100132.14
2018-05-26T05:44:11.133Z,100144.53
2018-05-26T05:46:38.719Z,100143.01
2018-05-26T05:49:06.344Z,100140.52
2018-05-26T05:51:33.941Z,100147.16
2018-05-26T05:54:01.531Z,100158.48
2018-05-26T05:56:29.191Z,100162.31
2018-05-26T05:58:56.778Z,100154.73
2018-05-26T06:01:24.396Z,100155.23
2018-05-26T06:03:52.019Z,100153.14
2018-05-26T06:06:19.611Z,100151.89
2018-05-26T06:08:47.190Z,100150.55
2018-05-26T06:11:14.827Z,100157.78
2018-05-26T06:13:42.416Z,100162.92
2018-05-26T06:16:09.999Z,100152.73
2018-05-26T06:18:37.629Z,100157.76
2018-05-26T06:21:05.223Z,100168.59
2018-05-26T06:23:39.757Z,100166.83
2018-05-26T06:26:07.341Z,100174.77
2018-05-26T06:28:34.998Z,100173.02
2018-05-26T06:31:02.627Z,100169.98
2018-05-26T06:33:30.224Z,100168.48
2018-05-26T06:35:57.879Z,100167.53
2018-05-26T06:38:25.497Z,100164.77
2018-05-26T06:40:53.352Z,100161.61
2018-05-26T06:43:20.957Z,100165.67
2018-05-26T06:45:48.583Z,100160.16
2018-05-26T06:48:16.199Z,100162.78
2018-05-26T06:50:43.805Z,100166.81
2018-05-26T06:53:11.459Z,100173.87
2018-05-26T06:55:39.039Z,100181.26
2018-05-26T06:58:06.648Z,100171.99
2018-05-26T07:00:34.255Z,100179.34
2018-05-26T07:03:01.840Z,100177.46
2018-05-26T07:05:29.434Z,100169.98
2018-05-26T07:07:57.051Z,100172.41
2018-05-26T07:10:24.635Z,100172.27
2018-05-26T07:12:52.231Z,100177.78
2018-05-26T07:15:19.864Z,100182.45
2018-05-26T07:17:48.379Z,100184.55
2018-05-26T07:20:15.968Z,100183.55
2018-05-26T07:22:43.591Z,100181.28
2018-05-26T07:25:11.185Z,100186.17
2018-05-26T07:27:38.831Z,100183.11
2018-05-26T07:30:06.456Z,100191.64
2018-05-26T07:32:34.043Z,100200.35
2018-05-26T07:35:01.635Z,100193.55
2018-05-26T07:37:29.295Z,100197.59
2018-05-26T07:39:56.876Z,100205.03
2018-05-26T07:42:24.461Z,100203.65
2018-05-26T07:44:52.083Z,100196.06
2018-05-26T07:47:19.661Z,100197.34
2018-05-26T07:49:47.231Z,100206.48
2018-05-26T07:52:14.860Z,100199.02
2018-05-26T07:54:42.456Z,100201.27
2018-05-26T07:57:10.041Z,100204.41
2018-05-26T07:59:37.630Z,100202.87
2018-05-26T08:02:05.204Z,100207.16
2018-05-26T08:04:32.788Z,100206.86
2018-05-26T08:07:00.415Z,100196.95
2018-05-26T08:09:28.005Z,100210.98
2018-05-26T08:11:55.576Z,100209.00
2018-05-26T08:14:23.175Z,100208.86
2018-05-26T08:16:50.742Z,100208.12
2018-05-26T08:19:18.312Z,100201.52
2018-05-26T08:21:45.917Z,100201.33
2018-05-26T08:24:13.503Z,100205.52
2018-05-26T08:26:41.089Z,100208.83
2018-05-26T08:29:08.680Z,100211.00
2018-05-26T08:31:36.260Z,100206.09
2018-05-26T08:34:03.852Z,100206.87
2018-05-26T08:36:31.473Z,100207.63
2018-05-26T08:38:59.079Z,100206.48
2018-05-26T08:41:26.718Z,100213.49
2018-05-26T08:43:54.403Z,100205.92
2018-05-26T08:46:21.991Z,100206.52
2018-05-26T08:48:49.579Z,100209.05
2018-05-26T08:51:17.200Z,100215.07
2018-05-26T08:53:44.792Z,100199.44
2018-05-26T08:56:12.374Z,100196.70
2018-05-26T08:58:39.992Z,100197.19
2018-05-26T09:01:07.566Z,100197.52
2018-05-26T09:03:35.143Z,100189.82
2018-05-26T09:06:02.738Z,100193.06
2018-05-26T09:08:30.466Z,100185.44
2018-05-26T09:10:58.041Z,100176.23
2018-05-26T09:13:25.651Z,100183.59
2018-05-26T09:15:53.228Z,100179.03
2018-05-26T09:18:20.810Z,100175.28
2018-05-26T09:20:48.419Z,100173.42
2018-05-26T09:23:16.040Z,100169.18
2018-05-26T09:25:43.605Z,100174.61
2018-05-26T09:28:11.367Z,100173.70
2018-05-26T09:30:38.981Z,100168.92
2018-05-26T09:33:06.568Z,100162.34
2018-05-26T09:35:35.090Z,100159.04
2018-05-26T09:38:02.700Z,100159.71
2018-05-26T09:40:30.296Z,100159.03
2018-05-26T09:42:57.896Z,100153.15
2018-05-26T09:45:25.488Z,100152.03
2018-05-26T09:47:53.115Z,100148.05
2018-05-26T09:50:20.714Z,100149.04
2018-05-26T09:52:48.289Z,100146.57
2018-05-26T09:55:15.859Z,100144.55
2018-05-26T09:57:43.468Z,100142.70
2018-05-26T10:00:11.036Z,100149.27
2018-05-26T10:02:38.613Z,100145.55
2018-05-26T10:05:06.266Z,100145.75
2018-05-26T10:07:33.871Z,100146.72
2018-05-26T10:10:01.447Z,100131.95
2018-05-26T10:12:29.063Z,100138.09
2018-05-26T10:14:56.677Z,100134.39
2018-05-26T10:17:24.266Z,100137.86
2018-05-26T10:19:51.952Z,100142.31
2018-05-26T10:22:19.543Z,100128.56
2018-05-26T10:24:47.136Z,100132.70
2018-05-26T10:27:14.751Z,100136.83
2018-05-26T10:29:42.329Z,100124.69
2018-05-26T10:32:09.913Z,100129.58
2018-05-26T10:34:37.533Z,100120.16
2018-05-26T10:37:05.125Z,100111.55
2018-05-26T10:39:32.722Z,100117.91
2018-05-26T10:42:00.354Z,100115.75
2018-05-26T10:44:27.926Z,100109.95
2018-05-26T10:46:55.518Z,100107.99
2018-05-26T10:49:23.155Z,100102.80
2018-05-26T10:51:50.762Z,100094.95
2018-05-26T10:54:18.334Z,100101.20
2018-05-26T10:56:45.983Z,100095.14
2018-05-26T10:59:13.578Z,100094.78
2018-05-26T11:01:41.194Z,100094.05
2018-05-26T11:04:08.840Z,100088.23
2018-05-26T11:06:48.228Z,100093.16
2018-05-26T11:09:15.867Z,100083.94
2018-05-26T11:11:43.436Z,100077.25
2018-05-26T11:14:11.007Z,100084.77
2018-05-26T11:16:38.660Z,100071.27
2018-05-26T11:19:06.255Z,100067.14
2018-05-26T11:21:33.837Z,100065.64
2018-05-26T11:24:01.644Z,100082.41
2018-05-26T11:26:29.086Z,100070.39
2018-05-26T11:28:56.661Z,100074.48
2018-05-26T11:31:24.399Z,100068.28
2018-05-26T11:33:51.969Z,100063.61
2018-05-26T11:36:19.729Z,100071.02
2018-05-26T11:38:47.342Z,100068.92
2018-05-26T11:41:14.919Z,100060.53
2018-05-26T11:43:42.527Z,100052.16
2018-05-26T11:46:10.152Z,100046.80
2018-05-26T11:48:37.727Z,100040.77
2018-05-26T11:51:05.316Z,100051.13
2018-05-26T11:53:32.924Z,100046.20
2018-05-26T11:56:00.509Z,100042.41
2018-05-26T11:58:28.076Z,100041.09
2018-05-26T12:00:55.697Z,100040.06
2018-05-26T12:03:23.277Z,100034.20
2018-05-26T12:05:50.859Z,100037.86
2018-05-26T12:08:18.532Z,100030.35
2018-05-26T12:10:46.132Z,100022.66
2018-05-26T12:13:13.740Z,100026.72
2018-05-26T12:15:41.396Z,100023.41
2018-05-26T12:18:08.977Z,100032.23
2018-05-26T12:20:36.538Z,100028.25
2018-05-26T12:23:04.150Z,100034.58
2018-05-26T12:25:31.739Z,100035.15
2018-05-26T12:27:59.321Z,100045.50
2018-05-26T12:30:26.943Z,100035.69
2018-05-26T12:32:54.515Z,100036.30
2018-05-26T12:35:22.087Z,100033.72
2018-05-26T12:37:49.709Z,100026.45
2018-05-26T12:40:17.321Z,100034.30
2018-05-26T12:42:44.889Z,100032.34
2018-05-26T12:45:12.510Z,100025.59
2018-05-26T12:47:40.097Z,100020.97
2018-05-26T12:50:07.791Z,100018.46
2018-05-26T12:52:35.493Z,100009.83
2018-05-26T12:55:03.065Z,99998.16
2018-05-26T12:57:30.639Z,99988.70
2018-05-26T12:59:58.236Z,99993.59
2018-05-26T13:02:25.818Z,99981.29
2018-05-26T13:04:53.400Z,99994.13
2018-05-26T13:07:20.995Z,99989.48
2018-05-26T13:09:48.570Z,99983.84
2018-05-26T13:12:16.140Z,99988.51
2018-05-26T13:14:43.738Z,99992.03
2018-05-26T13:17:11.321Z,99989.21
2018-05-26T13:19:38.883Z,99986.91
2018-05-26T13:22:06.496Z,99987.47
2018-05-26T13:24:34.064Z,99992.62
2018-05-26T13:27:01.630Z,99992.25
2018-05-26T13:29:29.234Z,99979.13
2018-05-26T13:31:56.792Z,99972.60
2018-05-26T13:34:24.496Z,99969.08
2018-05-26T13:36:52.088Z,99963.22
2018-05-26T13:39:19.674Z,99959.48
2018-05-26T13:41:47.236Z,99960.02
2018-05-26T13:44:14.896Z,99956.14
2018-05-26T13:46:42.560Z,99955.14
2018-05-26T13:49:10.133Z,99953.73
2018-05-26T13:51:37.909Z,99949.30
2018-05-26T13:54:05.528Z,99951.76
2018-05-26T13:56:33.134Z,99942.15
2018-05-26T13:59:00.751Z,99942.92
2018-05-26T14:01:28.325Z,99941.80
2018-05-26T14:03:55.895Z,99945.55
2018-05-26T14:06:23.639Z,99946.06
2018-05-26T14:08:51.205Z,99952.63
2018-05-26T14:11:18.773Z,99945.19
2018-05-26T14:13:46.382Z,99943.37
2018-05-26T14:16:13.967Z,99940.02
2018-05-26T14:18:41.530Z,99936.49
2018-05-26T14:21:09.139Z,99946.11
2018-05-26T14:23:36.711Z,99947.84
2018-05-26T14:26:04.288Z,99943.84
2018-05-26T14:28:31.902Z,99942.82
2018-05-26T14:30:59.479Z,99935.84
2018-05-26T14:33:27.047Z,99939.80
2018-05-26T14:35:54.661Z,99938.19
2018-05-26T14:38:22.242Z,99942.47
2018-05-26T14:40:49.836Z,99946.09
2018-05-26T14:43:17.431Z,99944.30
2018-05-26T14:45:45.005Z,99942.59
2018-05-26T14:48:12.690Z,99937.84
2018-05-26T14:50:40.288Z,99936.53
2018-05-26T14:53:07.881Z,99936.43
2018-05-26T14:55:35.668Z,99936.09
2018-05-26T14:58:03.301Z,99937.23
2018-05-26T15:00:30.868Z,99937.64
2018-05-26T15:02:58.419Z,99934.61
2018-05-26T15:05:26.019Z,99943.57
2018-05-26T15:07:53.604Z,99949.27
2018-05-26T15:10:21.172Z,99943.66
2018-05-26T15:12:48.952Z,99943.08
2018-05-26T15:15:16.466Z,99938.64
2018-05-26T15:17:44.213Z,99946.11
2018-05-26T15:20:11.879Z,99944.58
2018-05-26T15:22:39.640Z,99933.27
2018-05-26T15:25:07.234Z,99938.80
2018-05-26T15:27:34.869Z,99943.21
2018-05-26T15:30:02.423Z,99943.73
2018-05-26T15:32:29.981Z,99947.35
2018-05-26T15:34:57.632Z,99958.92
2018-05-26T15:37:25.192Z,99964.33
2018-05-26T15:39:52.759Z,99965.06
2018-05-26T15:42:20.434Z,99971.05
2018-05-26T15:44:48.001Z,99970.81
2018-05-26T15:47:15.575Z,99975.11
2018-05-26T15:49:43.397Z,99984.06
2018-05-26T15:52:10.982Z,99986.30
2018-05-26T15:54:38.740Z,99989.91
2018-05-26T15:57:06.354Z,99990.89
2018-05-26T15:59:34.055Z,99993.83
2018-05-26T16:02:01.637Z,100003.91
2018-05-26T16:04:29.377Z,100005.49
2018-05-26T16:06:56.955Z,100004.53
2018-05-26T16:09:24.514Z,100007.28
2018-05-26T16:11:52.106Z,100005.53
2018-05-26T16:14:19.676Z,100010.06
2018-05-26T16:16:47.251Z,100008.87
2018-05-26T16:19:14.880Z,100005.64
2018-05-26T16:21:42.450Z,100024.25
2018-05-26T16:24:10.099Z,100025.72
2018-05-26T16:26:37.700Z,100024.19
2018-05-26T16:29:05.272Z,100021.55
2018-05-26T16:31:32.839Z,100020.33
2018-05-26T16:34:00.445Z,100019.52
2018-05-26T16:36:28.017Z,100023.13
2018-05-26T16:38:55.574Z,100012.55
2018-05-26T16:41:23.396Z,100010.69
2018-05-26T16:43:51.048Z,100011.67
2018-05-26T16:46:18.710Z,100016.23
2018-05-26T16:48:46.312Z,100010.16
2018-05-26T16:51:14.046Z,99996.56
2018-05-26T16:53:41.615Z,100008.39
2018-05-26T16:56:09.227Z,100012.46
2018-05-26T16:58:37.081Z,100013.65
2018-05-26T17:01:04.700Z,100010.64
2018-05-26T17:03:32.368Z,100003.41
2018-05-26T17:06:00.196Z,100017.41
2018-05-26T17:08:27.887Z,100013.84
2018-05-26T17:10:55.556Z,100015.78
2018-05-26T17:13:23.143Z,100019.18
2018-05-26T17:15:50.772Z,100020.97
2018-05-26T17:18:18.392Z,100014.34
2018-05-26T17:20:46.187Z,100020.02
2018-05-26T17:23:13.780Z,100018.64
2018-05-26T17:25:41.524Z,100021.50
2018-05-26T17:28:09.185Z,100031.29
2018-05-26T17:30:36.830Z,100037.67
2018-05-26T17:33:04.437Z,100053.14
2018-05-26T17:35:32.013Z,100075.98
2018-05-26T17:37:59.572Z,100078.23
2018-05-26T17:40:27.188Z,100080.95
2018-05-26T17:42:54.763Z,100084.77
2018-05-26T17:45:22.337Z,100079.41
2018-05-26T17:47:49.949Z,100080.23
2018-05-26T17:50:17.537Z,100072.59
2018-05-26T17:52:45.174Z,100078.16
2018-05-26T17:55:12.770Z,100075.36
2018-05-26T17:57:40.358Z,100076.47
2018-05-26T18:00:07.951Z,100076.28
2018-05-26T18:02:35.558Z,100079.47
2018-05-26T18:05:03.122Z,100085.44
2018-05-26T18:07:30.689Z,100100.01
2018-05-26T18:09:58.293Z,100105.64
2018-05-26T18:12:26.078Z,100116.19
2018-05-26T18:14:53.734Z,100125.42
2018-05-26T18:17:21.385Z,100127.22
2018-05-26T18:19:48.973Z,100126.73
2018-05-26T18:22:16.597Z,100128.80
2018-05-26T18:24:44.156Z,100140.16
2018-05-26T18:27:11.758Z,100149.69
2018-05-26T18:29:39.376Z,100147.06
2018-05-26T18:32:06.962Z,100147.68
2018-05-26T18:34:34.542Z,100152.59
2018-05-26T18:37:02.170Z,100160.73
2018-05-26T18:39:29.739Z,100164.60
2018-05-26T18:41:57.493Z,100183.52
2018-05-26T18:44:25.094Z,100202.92
2018-05-26T18:46:52.671Z,100218.20
2018-05-26T18:49:20.266Z,100226.36
2018-05-26T18:51:47.883Z,100221.08
2018-05-26T18:54:15.655Z,100218.61
2018-05-26T18:56:43.240Z,100209.87
2018-05-26T18:59:10.852Z,100199.94
2018-05-26T19:01:38.615Z,100207.56
2018-05-26T19:04:06.199Z,100209.44
2018-05-26T19:06:33.890Z,100205.89
2018-05-26T19:09:01.492Z,100203.29
2018-05-26T19:11:29.075Z,100203.59
2018-05-26T19:13:56.798Z,100206.72
2018-05-26T19:16:24.415Z,100206.42
2018-05-26T19:18:51.994Z,100210.52
2018-05-26T19:21:19.621Z,100214.91
2018-05-26T19:23:47.218Z,100214.52
2018-05-26T19:26:14.808Z,100221.72
2018-05-26T19:28:42.420Z,100230.02
2018-05-26T19:31:10.004Z,100229.35
2018-05-26T19:33:37.656Z,100224.71
2018-05-26T19:36:05.285Z,100232.63
2018-05-26T19:38:32.851Z,100228.13
2018-05-26T19:41:00.425Z,100234.80
2018-05-26T19:43:28.039Z,100232.22
2018-05-26T19:45:55.634Z,100224.73
2018-05-26T19:48:23.211Z,100224.60
2018-05-26T19:50:50.833Z,100222.84
2018-05-26T19:53:18.425Z,100227.59
2018-05-26T19:55:46.026Z,100230.30
2018-05-26T19:58:13.656Z,100239.44
2018-05-26T20:00:41.226Z,100236.90
2018-05-26T20:03:08.823Z,100244.48
2018-05-26T20:05:36.430Z,100250.05
2018-05-26T20:08:04.006Z,100245.95
2018-05-26T20:10:31.793Z,100246.87
2018-05-26T20:12:59.398Z,100251.33
2018-05-26T20:15:26.984Z,100258.41
2018-05-26T20:17:54.580Z,100258.11
2018-05-26T20:20:22.213Z,100258.59
2018-05-26T20:22:49.788Z,100255.70
2018-05-26T20:25:17.382Z,100248.89
2018-05-26T20:27:45.007Z,100245.36
2018-05-26T20:30:12.581Z,100243.45
2018-05-26T20:32:40.162Z,100240.77
2018-05-26T20:35:07.766Z,100237.41
2018-05-26T20:37:35.339Z,100243.63
2018-05-26T20:40:02.920Z,100249.13
2018-05-26T20:42:30.536Z,100250.49
2018-05-26T20:44:58.365Z,100253.48
2018-05-26T20:47:25.939Z,100252.84
2018-05-26T20:49:53.541Z,100251.99
2018-05-26T20:52:21.128Z,100243.52
2018-05-26T20:54:48.708Z,100257.16
2018-05-26T20:57:16.310Z,100257.97
2018-05-26T20:59:43.978Z,100246.69
2018-05-26T21:02:11.541Z,100245.02
2018-05-26T21:04:39.141Z,100250.02
2018-05-26T21:07:06.728Z,100252.56
2018-05-26T21:09:34.318Z,100252.96
2018-05-26T21:12:01.947Z,100255.37
2018-05-26T21:14:29.527Z,100261.58
2018-05-26T21:16:57.087Z,100259.64
2018-05-26T21:19:24.808Z,100262.61
2018-05-26T21:21:52.372Z,100263.44
2018-05-26T21:24:19.945Z,100264.93
2018-05-26T21:26:47.562Z,100267.25
2018-05-26T21:29:15.141Z,100263.30
2018-05-26T21:31:42.730Z,100268.28
2018-05-26T21:34:10.352Z,100268.18
2018-05-26T21:36:37.934Z,100270.84
2018-05-26T21:39:06.419Z,100270.83
2018-05-26T21:41:34.061Z,100264.39
2018-05-26T21:44:01.644Z,100267.11
2018-05-26T21:46:29.320Z,100269.42
2018-05-26T21:48:57.041Z,100269.14
2018-05-26T21:51:24.652Z,100272.59
2018-05-26T21:53:52.244Z,100269.08
2018-05-26T21:56:19.906Z,100271.37
2018-05-26T21:58:47.488Z,100268.07
2018-05-26T22:01:15.055Z,100267.87
2018-05-26T22:03:42.692Z,100272.02
2018-05-26T22:06:10.337Z,100271.55
2018-05-26T22:08:37.885Z,100279.30
2018-05-26T22:11:05.487Z,100273.73
2018-05-26T22:13:33.055Z,100264.84
2018-05-26T22:16:00.627Z,100261.78
2018-05-26T22:18:28.318Z,100266.39
2018-05-26T22:20:55.938Z,100256.75
2018-05-26T22:23:23.500Z,100274.61
2018-05-26T22:25:51.104Z,100279.50
2018-05-26T22:28:18.674Z,100273.11
2018-05-26T22:30:46.242Z,100268.50
2018-05-26T22:33:13.841Z,100266.86
2018-05-26T22:35:41.406Z,100265.16
2018-05-26T22:38:09.052Z,100267.14
2018-05-26T22:40:36.662Z,100268.64
2018-05-26T22:43:04.244Z,100266.66
2018-05-26T22:45:31.836Z,100265.62
2018-05-26T22:47:59.456Z,100267.78
2018-05-26T22:50:27.040Z,100265.56
2018-05-26T22:52:54.632Z,100269.70
2018-05-26T22:55:22.255Z,100266.41
2018-05-26T22:57:49.871Z,100268.61
2018-05-26T23:00:17.592Z,100267.92
2018-05-26T23:02:45.231Z,100270.34
2018-05-26T23:05:12.823Z,100273.09
2018-05-26T23:07:40.403Z,100270.14
2018-05-26T23:10:08.010Z,100278.63
2018-05-26T23:12:35.600Z,100276.05
2018-05-26T23:15:03.179Z,100280.75
2018-05-26T23:17:30.785Z,100285.09
2018-05-26T23:19:58.377Z,100276.34
2018-05-26T23:22:26.094Z,100271.47
2018-05-26T23:24:53.711Z,100265.35
2018-05-26T23:27:21.305Z,100259.05
2018-05-26T23:29:48.880Z,100258.70
2018-05-26T23:32:16.492Z,100256.67
2018-05-26T23:34:44.077Z,100254.08
2018-05-26T23:37:11.659Z,100253.01
2018-05-26T23:39:39.871Z,100247.90
2018-05-26T23:42:08.450Z,100245.00
2018-05-26T23:44:37.104Z,100247.71
2018-05-26T23:47:04.753Z,100243.09
2018-05-26T23:49:32.342Z,100244.79
2018-05-26T23:52:00.001Z,100241.27
2018-05-26T23:54:27.638Z,100236.19
2018-05-26T23:56:55.418Z,100241.73
2018-05-26T23:59:23.016Z,100237.37
